Frances Anne — WDE8555 — position and weather

sailwx.info

Track history (hours):
 
Tides and Currents Weather Stations Pressure Air Temp Water Temp Dewpoint Dewpoint Depression Visibility Wind Speed Wind Dir Waves Ship Positions

Frances Anne

Owner: Frances Anne Inc., West Creek, NJ. More information available from US FCC via Universal Licensing System and Coast Guard Vessel Documentation Center.

Last reported at 2015-Aug-26 02:22 UTC. Time now 2015-Aug-29 06:13 UTC.
Position N 39°55' W 070°07'.

Type: Fishing. MMSI: 367406910.

Date/timePositionNaut miles runAvg speedWind from/ knotsBaromVisibWave heightAir tempDewpointWater temp
2015-Aug-26 02:22N 39°55' W 070°07'5 5.7
2015-Aug-26 01:32N 39°54' W 070°01'6 5.5
2015-Aug-26 00:28N 39°54' W 069°54'7 2.2
2015-Aug-25 21:23N 39°56' W 069°45'2 1.8
2015-Aug-25 20:33N 39°55' W 069°47'5 4.2
2015-Aug-25 19:23N 39°56' W 069°53'6 6.6
2015-Aug-25 18:33N 39°56' W 070°00'2 1.5
2015-Aug-25 17:33N 39°55' W 070°02'3 3.2
2015-Aug-25 16:33N 39°54' W 069°58'2 1.8
2015-Aug-25 15:33N 39°54' W 069°55'4 3.3
2015-Aug-25 14:26N 39°54' W 069°51'2 2.3
2015-Aug-25 13:33N 39°53' W 069°48'3 3.2
2015-Aug-25 12:28N 39°52' W 069°44'3 3.4
2015-Aug-25 11:28N 39°52' W 069°39'5 0.8
2015-Aug-25 05:10N 39°54' W 069°45'15 7.1
2015-Aug-25 03:07N 39°55' W 070°04'5 8.0
2015-Aug-25 02:32N 39°56' W 070°10'9 8.0
2015-Aug-25 01:28N 39°55' W 070°22'8 8.0
2015-Aug-25 00:29N 39°55' W 070°32'5 5.2
2015-Aug-24 23:31N 39°56' W 070°38'3 2.6
2015-Aug-24 22:33N 39°56' W 070°35'4 4.4
2015-Aug-24 21:33N 39°56' W 070°29'5 4.6
2015-Aug-24 20:33N 39°56' W 070°23'5 5.0
2015-Aug-24 19:29N 39°55' W 070°17'5 5.0
2015-Aug-24 18:33N 39°53' W 070°11'5 3.7
2015-Aug-24 17:07N 39°52' W 070°04'9 1.9
2015-Aug-24 12:23N 39°51' W 069°53'3 3.0
2015-Aug-24 11:27N 39°51' W 069°49'3 2.5
2015-Aug-24 10:26N 39°52' W 069°46'1 1.4
2015-Aug-24 09:31N 39°52' W 069°48'3 2.9
2015-Aug-24 08:33N 39°52' W 069°51'1 0.9
2015-Aug-24 07:33N 39°53' W 069°52'1 0.9
2015-Aug-24 06:33N 39°53' W 069°53'1 1.1
2015-Aug-24 05:31N 39°54' W 069°54'1 1.0
2015-Aug-24 04:33N 39°54' W 069°56'3 2.4
2015-Aug-24 03:18N 39°54' W 069°59'9 7.4
2015-Aug-24 02:05N 39°54' W 070°11'14 7.3
2015-Aug-24 00:06N 39°58' W 070°29'9 3.5
2015-Aug-23 21:25N 39°55' W 070°41'3 3.3
2015-Aug-23 20:30N 39°55' W 070°37'3 2.8
2015-Aug-23 19:24N 39°55' W 070°33'2 2.8
2015-Aug-23 18:33N 39°56' W 070°30'4 3.9
2015-Aug-23 17:32N 39°56' W 070°25'3 3.1
2015-Aug-23 16:27N 39°56' W 070°20'4 3.9
2015-Aug-23 15:27N 39°56' W 070°15'3 3.3
2015-Aug-23 14:33N 39°55' W 070°11'4 3.2
2015-Aug-23 13:24N 39°55' W 070°07'2 2.5
2015-Aug-23 12:32N 39°55' W 070°04'2 1.8
2015-Aug-23 11:33N 39°54' W 070°02'3 1.4
2015-Aug-23 09:10N 39°52' W 070°05'1 1.1
2015-Aug-23 08:29N 39°52' W 070°06'1 0.8
2015-Aug-23 07:29N 39°52' W 070°07'1 0.6
2015-Aug-23 06:33N 39°52' W 070°07'1 0.6
2015-Aug-23 05:17N 39°52' W 070°08'0 0.6
2015-Aug-23 04:33N 39°52' W 070°09'3 2.2
2015-Aug-23 03:24N 39°53' W 070°12'7 7.6
2015-Aug-23 02:30N 39°55' W 070°21'7 7.5
2015-Aug-23 01:33N 39°54' W 070°30'8 7.6
2015-Aug-23 00:33N 39°53' W 070°40'8 7.6
2015-Aug-22 23:29N 39°53' W 070°50'1 1.1
2015-Aug-22 22:25N 39°53' W 070°49'3 3.7
2015-Aug-22 21:33N 39°53' W 070°45'4 4.2
2015-Aug-22 20:29N 39°53' W 070°39'4 4.5
2015-Aug-22 19:32N 39°53' W 070°33'5 4.7
2015-Aug-22 18:32N 39°53' W 070°27'5 4.8
2015-Aug-22 17:33N 39°53' W 070°21'5 4.7
2015-Aug-22 16:33N 39°53' W 070°15'3 3.3
2015-Aug-22 15:31N 39°53' W 070°11'4 4.2
2015-Aug-22 14:30N 39°51' W 070°05'5 4.4
2015-Aug-22 13:27N 39°49' W 069°60'4 3.8
2015-Aug-22 12:29N 39°48' W 069°55'3 2.5
2015-Aug-22 11:28N 39°48' W 069°52'8 2.8
2015-Aug-22 08:29N 39°48' W 070°03'14 5.9
2015-Aug-22 06:12N 39°50' W 070°21'12 7.2
2015-Aug-22 04:30N 39°51' W 070°37'4 4.1
2015-Aug-22 03:33N 39°52' W 070°42'17 5.4
2015-Aug-22 00:23N 39°52' W 070°19'17 1.4
2015-Aug-21 12:04N 39°57' W 070°40'4 5.8
2015-Aug-21 11:18N 39°57' W 070°46'1 1.6
2015-Aug-21 10:29N 39°56' W 070°48'6 0.9
2015-Aug-21 03:32N 39°54' W 070°56'6 6.1
2015-Aug-21 02:32N 39°55' W 070°48'6 6.0
2015-Aug-21 01:32N 39°55' W 070°40'6 5.7
2015-Aug-21 00:32N 39°55' W 070°33'7 5.7
2015-Aug-20 23:17N 39°55' W 070°23'5 6.3
2015-Aug-20 22:32N 39°51' W 070°19'7 6.4
2015-Aug-20 21:29N 39°51' W 070°10'6 6.6
2015-Aug-20 20:31N 39°50' W 070°02'6 6.5
2015-Aug-20 19:33N 39°49' W 069°54'7 6.6
2015-Aug-20 18:33N 39°48' W 069°45'9 6.8
2015-Aug-20 17:12N 39°46' W 069°34'9 3.5
2015-Aug-20 14:33N 39°47' W 069°46'6 6.2
2015-Aug-20 13:33N 39°49' W 069°53'11 0.3
2015-Aug-19 03:27N 39°46' W 070°07'6 6.5
2015-Aug-19 02:32N 39°47' W 070°15'6 5.6
2015-Aug-19 01:33N 39°48' W 070°08'6 5.7
2015-Aug-19 00:28N 39°48' W 069°60'6 5.2
2015-Aug-18 23:17N 39°48' W 069°52'5 2.5
2015-Aug-18 21:28N 39°49' W 069°46'3 3.6
2015-Aug-18 20:32N 39°49' W 069°50'8 6.8
2015-Aug-18 19:20N 39°48' W 070°00'6 6.5
2015-Aug-18 18:22N 39°48' W 070°09'4 5.1
2015-Aug-18 17:33N 39°52' W 070°10'4 3.8
2015-Aug-18 16:32N 39°53' W 070°05'4 4.2
2015-Aug-18 15:33N 39°53' W 069°60'11 3.8
2015-Aug-18 12:33N 39°50' W 069°46'17 1.3
2015-Aug-17 23:07N 39°52' W 070°08'3 5.4
2015-Aug-17 22:33N 39°52' W 070°04'5 5.3
2015-Aug-17 21:33N 39°52' W 069°57'1 0.8
2015-Aug-17 20:31N 39°52' W 069°58'2 2.0
2015-Aug-17 19:33N 39°52' W 070°01'6 4.7
2015-Aug-17 18:20N 39°56' W 070°07'5 6.3
2015-Aug-17 17:33N 40°00' W 070°09'5 2.2
2015-Aug-17 15:29N 40°02' W 070°14'6 5.2
2015-Aug-17 14:18N 39°57' W 070°18'17 7.4
2015-Aug-17 12:04N 39°47' W 070°36'5 8.4
2015-Aug-17 11:31N 39°44' W 070°41'7 7.3
2015-Aug-17 10:33N 39°45' W 070°50'8 7.8
2015-Aug-17 09:31N 39°45' W 071°00'7 7.5
2015-Aug-17 08:33N 39°45' W 071°10'8 7.5
2015-Aug-17 07:33N 39°45' W 071°20'8 7.7
2015-Aug-17 06:30N 39°45' W 071°30'7 7.8
2015-Aug-17 05:33N 39°45' W 071°40'8 8.0
2015-Aug-17 04:33N 39°45' W 071°50'8 8.5
2015-Aug-17 03:33N 39°45' W 072°01'8 8.4
2015-Aug-17 02:33N 39°45' W 072°12'8 8.4
2015-Aug-17 01:33N 39°45' W 072°23'8 7.9
2015-Aug-17 00:33N 39°45' W 072°33'8 7.7
2015-Aug-16 23:33N 39°45' W 072°43'7 7.3
2015-Aug-16 22:33N 39°45' W 072°53'7 7.3
2015-Aug-16 21:33N 39°45' W 073°02'32 7.7
2015-Aug-16 17:22N 39°45' W 073°44'7 8.0
2015-Aug-16 16:32N 39°45' W 073°53'8 7.9
2015-Aug-16 15:33N 39°45' W 074°03'3 2.4
2015-Aug-16 14:23N 39°46' W 074°07'0 0.0
2015-Aug-16 13:29N 39°46' W 074°07'0 0.0
2015-Aug-16 12:29N 39°46' W 074°06'0 0.0
2015-Aug-16 11:29N 39°46' W 074°07'0 0.0
2015-Aug-16 10:26N 39°46' W 074°07'0 0.0
2015-Aug-16 09:29N 39°46' W 074°07'0 0.0
2015-Aug-16 08:29N 39°46' W 074°07'0 0.0
2015-Aug-16 07:29N 39°46' W 074°07'0 0.0
2015-Aug-16 06:32N 39°46' W 074°07'0 0.0
2015-Aug-16 05:29N 39°46' W 074°07'0 0.0
2015-Aug-16 04:17N 39°46' W 074°07'0 0.0
2015-Aug-16 03:29N 39°46' W 074°07'0 0.0
2015-Aug-16 02:29N 39°46' W 074°07'  
Track history (hours):
 
Tides and Currents Weather Stations Pressure Air Temp Water Temp Dewpoint Dewpoint Depression Visibility Wind Speed Wind Dir Waves Ship Positions

Frances Anne

Owner: Frances Anne Inc., West Creek, NJ. More information available from US FCC via Universal Licensing System and Coast Guard Vessel Documentation Center.

Last reported at 2015-Aug-26 02:22 UTC. Time now 2015-Aug-29 06:13 UTC.
Position N 39°55' W 070°07'.

Type: Fishing. MMSI: 367406910.

Date/timePositionNaut miles runAvg speedWind from/ knotsBaromVisibWave heightAir tempDewpointWater temp
2015-Aug-26 02:22N 39°55' W 070°07'5 5.7
2015-Aug-26 01:32N 39°54' W 070°01'6 5.5
2015-Aug-26 00:28N 39°54' W 069°54'7 2.2
2015-Aug-25 21:23N 39°56' W 069°45'2 1.8
2015-Aug-25 20:33N 39°55' W 069°47'5 4.2
2015-Aug-25 19:23N 39°56' W 069°53'6 6.6
2015-Aug-25 18:33N 39°56' W 070°00'2 1.5
2015-Aug-25 17:33N 39°55' W 070°02'3 3.2
2015-Aug-25 16:33N 39°54' W 069°58'2 1.8
2015-Aug-25 15:33N 39°54' W 069°55'4 3.3
2015-Aug-25 14:26N 39°54' W 069°51'2 2.3
2015-Aug-25 13:33N 39°53' W 069°48'3 3.2
2015-Aug-25 12:28N 39°52' W 069°44'3 3.4
2015-Aug-25 11:28N 39°52' W 069°39'5 0.8
2015-Aug-25 05:10N 39°54' W 069°45'15 7.1
2015-Aug-25 03:07N 39°55' W 070°04'5 8.0
2015-Aug-25 02:32N 39°56' W 070°10'9 8.0
2015-Aug-25 01:28N 39°55' W 070°22'8 8.0
2015-Aug-25 00:29N 39°55' W 070°32'5 5.2
2015-Aug-24 23:31N 39°56' W 070°38'3 2.6
2015-Aug-24 22:33N 39°56' W 070°35'4 4.4
2015-Aug-24 21:33N 39°56' W 070°29'5 4.6
2015-Aug-24 20:33N 39°56' W 070°23'5 5.0
2015-Aug-24 19:29N 39°55' W 070°17'5 5.0
2015-Aug-24 18:33N 39°53' W 070°11'5 3.7
2015-Aug-24 17:07N 39°52' W 070°04'9 1.9
2015-Aug-24 12:23N 39°51' W 069°53'3 3.0
2015-Aug-24 11:27N 39°51' W 069°49'3 2.5
2015-Aug-24 10:26N 39°52' W 069°46'1 1.4
2015-Aug-24 09:31N 39°52' W 069°48'3 2.9
2015-Aug-24 08:33N 39°52' W 069°51'1 0.9
2015-Aug-24 07:33N 39°53' W 069°52'1 0.9
2015-Aug-24 06:33N 39°53' W 069°53'1 1.1
2015-Aug-24 05:31N 39°54' W 069°54'1 1.0
2015-Aug-24 04:33N 39°54' W 069°56'3 2.4
2015-Aug-24 03:18N 39°54' W 069°59'9 7.4
2015-Aug-24 02:05N 39°54' W 070°11'14 7.3
2015-Aug-24 00:06N 39°58' W 070°29'9 3.5
2015-Aug-23 21:25N 39°55' W 070°41'3 3.3
2015-Aug-23 20:30N 39°55' W 070°37'3 2.8
2015-Aug-23 19:24N 39°55' W 070°33'2 2.8
2015-Aug-23 18:33N 39°56' W 070°30'4 3.9
2015-Aug-23 17:32N 39°56' W 070°25'3 3.1
2015-Aug-23 16:27N 39°56' W 070°20'4 3.9
2015-Aug-23 15:27N 39°56' W 070°15'3 3.3
2015-Aug-23 14:33N 39°55' W 070°11'4 3.2
2015-Aug-23 13:24N 39°55' W 070°07'2 2.5
2015-Aug-23 12:32N 39°55' W 070°04'2 1.8
2015-Aug-23 11:33N 39°54' W 070°02'3 1.4
2015-Aug-23 09:10N 39°52' W 070°05'1 1.1
2015-Aug-23 08:29N 39°52' W 070°06'1 0.8
2015-Aug-23 07:29N 39°52' W 070°07'1 0.6
2015-Aug-23 06:33N 39°52' W 070°07'1 0.6
2015-Aug-23 05:17N 39°52' W 070°08'0 0.6
2015-Aug-23 04:33N 39°52' W 070°09'3 2.2
2015-Aug-23 03:24N 39°53' W 070°12'7 7.6
2015-Aug-23 02:30N 39°55' W 070°21'7 7.5
2015-Aug-23 01:33N 39°54' W 070°30'8 7.6
2015-Aug-23 00:33N 39°53' W 070°40'8 7.6
2015-Aug-22 23:29N 39°53' W 070°50'1 1.1
2015-Aug-22 22:25N 39°53' W 070°49'3 3.7
2015-Aug-22 21:33N 39°53' W 070°45'4 4.2
2015-Aug-22 20:29N 39°53' W 070°39'4 4.5
2015-Aug-22 19:32N 39°53' W 070°33'5 4.7
2015-Aug-22 18:32N 39°53' W 070°27'5 4.8
2015-Aug-22 17:33N 39°53' W 070°21'5 4.7
2015-Aug-22 16:33N 39°53' W 070°15'3 3.3
2015-Aug-22 15:31N 39°53' W 070°11'4 4.2
2015-Aug-22 14:30N 39°51' W 070°05'5 4.4
2015-Aug-22 13:27N 39°49' W 069°60'4 3.8
2015-Aug-22 12:29N 39°48' W 069°55'3 2.5
2015-Aug-22 11:28N 39°48' W 069°52'8 2.8
2015-Aug-22 08:29N 39°48' W 070°03'14 5.9
2015-Aug-22 06:12N 39°50' W 070°21'12 7.2
2015-Aug-22 04:30N 39°51' W 070°37'4 4.1
2015-Aug-22 03:33N 39°52' W 070°42'17 5.4
2015-Aug-22 00:23N 39°52' W 070°19'17 1.4
2015-Aug-21 12:04N 39°57' W 070°40'4 5.8
2015-Aug-21 11:18N 39°57' W 070°46'1 1.6
2015-Aug-21 10:29N 39°56' W 070°48'6 0.9
2015-Aug-21 03:32N 39°54' W 070°56'6 6.1
2015-Aug-21 02:32N 39°55' W 070°48'6 6.0
2015-Aug-21 01:32N 39°55' W 070°40'6 5.7
2015-Aug-21 00:32N 39°55' W 070°33'7 5.7
2015-Aug-20 23:17N 39°55' W 070°23'5 6.3
2015-Aug-20 22:32N 39°51' W 070°19'7 6.4
2015-Aug-20 21:29N 39°51' W 070°10'6 6.6
2015-Aug-20 20:31N 39°50' W 070°02'6 6.5
2015-Aug-20 19:33N 39°49' W 069°54'7 6.6
2015-Aug-20 18:33N 39°48' W 069°45'9 6.8
2015-Aug-20 17:12N 39°46' W 069°34'9 3.5
2015-Aug-20 14:33N 39°47' W 069°46'6 6.2
2015-Aug-20 13:33N 39°49' W 069°53'11 0.3
2015-Aug-19 03:27N 39°46' W 070°07'6 6.5
2015-Aug-19 02:32N 39°47' W 070°15'6 5.6
2015-Aug-19 01:33N 39°48' W 070°08'6 5.7
2015-Aug-19 00:28N 39°48' W 069°60'6 5.2
2015-Aug-18 23:17N 39°48' W 069°52'5 2.5
2015-Aug-18 21:28N 39°49' W 069°46'3 3.6
2015-Aug-18 20:32N 39°49' W 069°50'8 6.8
2015-Aug-18 19:20N 39°48' W 070°00'6 6.5
2015-Aug-18 18:22N 39°48' W 070°09'4 5.1
2015-Aug-18 17:33N 39°52' W 070°10'4 3.8
2015-Aug-18 16:32N 39°53' W 070°05'4 4.2
2015-Aug-18 15:33N 39°53' W 069°60'11 3.8
2015-Aug-18 12:33N 39°50' W 069°46'17 1.3
2015-Aug-17 23:07N 39°52' W 070°08'3 5.4
2015-Aug-17 22:33N 39°52' W 070°04'5 5.3
2015-Aug-17 21:33N 39°52' W 069°57'1 0.8
2015-Aug-17 20:31N 39°52' W 069°58'2 2.0
2015-Aug-17 19:33N 39°52' W 070°01'6 4.7
2015-Aug-17 18:20N 39°56' W 070°07'5 6.3
2015-Aug-17 17:33N 40°00' W 070°09'5 2.2
2015-Aug-17 15:29N 40°02' W 070°14'6 5.2
2015-Aug-17 14:18N 39°57' W 070°18'17 7.4
2015-Aug-17 12:04N 39°47' W 070°36'5 8.4
2015-Aug-17 11:31N 39°44' W 070°41'7 7.3
2015-Aug-17 10:33N 39°45' W 070°50'8 7.8
2015-Aug-17 09:31N 39°45' W 071°00'7 7.5
2015-Aug-17 08:33N 39°45' W 071°10'8 7.5
2015-Aug-17 07:33N 39°45' W 071°20'8 7.7
2015-Aug-17 06:30N 39°45' W 071°30'7 7.8
2015-Aug-17 05:33N 39°45' W 071°40'8 8.0
2015-Aug-17 04:33N 39°45' W 071°50'8 8.5
2015-Aug-17 03:33N 39°45' W 072°01'8 8.4
2015-Aug-17 02:33N 39°45' W 072°12'8 8.4
2015-Aug-17 01:33N 39°45' W 072°23'8 7.9
2015-Aug-17 00:33N 39°45' W 072°33'8 7.7
2015-Aug-16 23:33N 39°45' W 072°43'7 7.3
2015-Aug-16 22:33N 39°45' W 072°53'7 7.3
2015-Aug-16 21:33N 39°45' W 073°02'32 7.7
2015-Aug-16 17:22N 39°45' W 073°44'7 8.0
2015-Aug-16 16:32N 39°45' W 073°53'8 7.9
2015-Aug-16 15:33N 39°45' W 074°03'3 2.4
2015-Aug-16 14:23N 39°46' W 074°07'0 0.0
2015-Aug-16 13:29N 39°46' W 074°07'0 0.0
2015-Aug-16 12:29N 39°46' W 074°06'0 0.0
2015-Aug-16 11:29N 39°46' W 074°07'0 0.0
2015-Aug-16 10:26N 39°46' W 074°07'0 0.0
2015-Aug-16 09:29N 39°46' W 074°07'0 0.0
2015-Aug-16 08:29N 39°46' W 074°07'0 0.0
2015-Aug-16 07:29N 39°46' W 074°07'0 0.0
2015-Aug-16 06:32N 39°46' W 074°07'0 0.0
2015-Aug-16 05:29N 39°46' W 074°07'0 0.0
2015-Aug-16 04:17N 39°46' W 074°07'0 0.0
2015-Aug-16 03:29N 39°46' W 074°07'0 0.0
2015-Aug-16 02:29N 39°46' W 074°07'  

Dump ship's entire track history